Bremgarten, Germany

8:02 AM CEST on September 18, 2014 (GMT +0200)
Black Forrest Bad Krozingen Southbaden | Change Station
CLOSE
Current Station
Personal Weather Station
Location: Bad Krozingen, BADEN-WüRTTEMBERG
Elevation: 758 ft
Nearby Weather Stations

Elev 758 ft 47.92 °N, 7.71 °E | Updated 28 seconds ago

Clear
Clear
63.1 °F
Feels Like 63.1 °F
N
0.0
Wind Variable Wind from South
Gusts 0.0 mph

Today
High -- | Low -- °F
--% Chance of Precip.
Yesterday
High -- | Low -- °F
Precip. -- in
7:10 AM 7:36 PM
Waning Crescent, 30% visible
Pressure 29.89 in
Visibility -9999.0 miles
Clouds
Dew Point 62 °F
Humidity 97%
Rainfall 0.01 in
Snow Depth Not available.
UV 0.0 out of 12
Pollen Not available.
Air Quality Not available.
Flu Activity Not available.
METAR EDTL 180550Z VRB01KT CAVOK 16/15 Q1012

More Conditions Fewer Conditions

Pressure 29.89 in
Visibility -9999.0 miles
Clouds
Dew Point 62 °F
Humidity 97%
Rainfall 0.01 in
Snow Depth Not available.
UV 0.0 out of 12
Pollen Not available.
Air Quality Not available.
Flu Activity Not available.
METAR EDTL 180550Z VRB01KT CAVOK 16/15 Q1012

More Conditions Fewer Conditions

10-Day Weather Forecast

Almanac

Astronomy

Sep. 18, 2014 Rise Set
Actual Time 7:10 AM CEST 7:36 PM CEST
Civil Twilight 6:39 AM CEST 8:07 PM CEST
Nautical Twilight 6:02 AM CEST 8:43 PM CEST
Astronomical Twilight 5:24 AM CEST 9:21 PM CEST
Moon 1:30 AM CEST 4:33 PM CEST
Length of Visible Light 13h 27m
Length of Day
12h 25m
Tomorrow will be 3m 27s shorter.
Waning Crescent, 30% of the Moon is Illuminated
Today
Waning Crescent
Sep 24
New
Oct 1
First Quarter
Oct 8
Full
Oct 15
Last Quarter

Yesterday's Extremes

Country Highs Country Lows

Community

WunderPhotos

Upload Photos

1,754,297 photos uploaded!

Nearby

Snow Depth

Not available.

Earthquake Activity

City Distance Mag. Time & Date
No recent earthquake activity has been reported nearby.
Minimum magnitude displayed is 2.5.

Coastal Water Temperatures

Place Temperature
No Stations Reporting

Nearby Weather Stations